createdAt,value
2023-03-31T00:01:09.916Z,96773.27
2023-03-31T00:03:44.822Z,96774.35
2023-03-31T00:06:18.730Z,96775.23
2023-03-31T00:08:52.028Z,96777.96
2023-03-31T00:11:23.679Z,96775.73
2023-03-31T00:13:51.727Z,96770.59
2023-03-31T00:16:19.747Z,96765.57
2023-03-31T00:18:51.150Z,96761.91
2023-03-31T00:21:29.167Z,96755.16
2023-03-31T00:23:58.880Z,96754.86
2023-03-31T00:26:28.176Z,96751.85
2023-03-31T00:28:57.297Z,96744.70
2023-03-31T00:31:27.303Z,96742.17
2023-03-31T00:33:56.663Z,96738.94
2023-03-31T00:36:28.838Z,96731.05
2023-03-31T00:39:00.739Z,96724.55
2023-03-31T00:41:29.859Z,96723.14
2023-03-31T00:44:08.601Z,96712.85
2023-03-31T00:46:49.945Z,96705.14
2023-03-31T00:49:30.537Z,96703.35
2023-03-31T00:52:07.756Z,96702.06
2023-03-31T00:54:36.684Z,96698.84
2023-03-31T00:57:06.879Z,96694.83
2023-03-31T00:59:38.164Z,96687.91
2023-03-31T01:02:06.530Z,96684.18
2023-03-31T01:04:39.112Z,96675.15
2023-03-31T01:07:31.076Z,96668.17
2023-03-31T01:10:01.589Z,96666.15
2023-03-31T01:12:30.281Z,96656.74
2023-03-31T01:14:58.969Z,96650.96
2023-03-31T01:17:30.138Z,96647.08
2023-03-31T01:20:12.194Z,96639.35
2023-03-31T01:22:49.685Z,96636.64
2023-03-31T01:25:27.273Z,96629.25
2023-03-31T01:27:57.943Z,96626.17
2023-03-31T01:30:31.977Z,96624.06
2023-03-31T01:33:05.949Z,96628.05
2023-03-31T01:35:47.244Z,96620.56
2023-03-31T01:38:17.860Z,96623.54
2023-03-31T01:40:50.060Z,96624.86
2023-03-31T01:43:47.669Z,96624.77
2023-03-31T01:46:30.527Z,96622.34
2023-03-31T01:49:01.528Z,96612.14
2023-03-31T01:52:04.933Z,96613.29
2023-03-31T01:54:40.979Z,96610.02
2023-03-31T01:57:17.591Z,96607.56
2023-03-31T02:00:08.835Z,96603.55
2023-03-31T02:02:46.434Z,96607.98
2023-03-31T02:05:17.606Z,96604.48
2023-03-31T02:07:52.916Z,96591.47
2023-03-31T02:10:21.822Z,96594.44
2023-03-31T02:12:51.344Z,96596.27
2023-03-31T02:15:23.389Z,96586.74
2023-03-31T02:17:54.861Z,96580.06
2023-03-31T02:20:23.644Z,96582.56
2023-03-31T02:22:56.124Z,96577.25
2023-03-31T02:25:26.553Z,96575.20
2023-03-31T02:27:58.134Z,96578.64
2023-03-31T02:30:34.875Z,96579.44
2023-03-31T02:33:05.598Z,96573.88
2023-03-31T02:35:35.344Z,96574.52
2023-03-31T02:38:06.924Z,96569.98
2023-03-31T02:40:34.975Z,96565.39
2023-03-31T02:43:03.004Z,96563.86
2023-03-31T02:45:41.749Z,96561.90
2023-03-31T02:48:12.720Z,96551.86
2023-03-31T02:50:59.710Z,96550.84
2023-03-31T02:53:48.874Z,96550.64
2023-03-31T02:56:28.301Z,96551.08
2023-03-31T02:58:57.520Z,96555.46
2023-03-31T03:01:40.623Z,96560.04
2023-03-31T03:04:37.463Z,96562.98
2023-03-31T03:07:29.387Z,96567.13
2023-03-31T03:10:15.928Z,96564.35
2023-03-31T03:12:59.501Z,96563.70
2023-03-31T03:15:31.779Z,96568.98
2023-03-31T03:18:00.339Z,96561.23
2023-03-31T03:20:28.451Z,96565.41
2023-03-31T03:22:56.521Z,96568.95
2023-03-31T03:25:24.669Z,96567.25
2023-03-31T03:27:53.386Z,96568.56
2023-03-31T03:30:21.773Z,96569.95
2023-03-31T03:32:50.622Z,96567.61
2023-03-31T03:35:18.739Z,96568.17
2023-03-31T03:37:47.232Z,96573.99
2023-03-31T03:40:15.551Z,96575.55
2023-03-31T03:42:43.485Z,96577.13
2023-03-31T03:45:11.556Z,96584.11
2023-03-31T03:47:39.547Z,96584.45
2023-03-31T03:50:07.932Z,96582.19
2023-03-31T03:52:35.995Z,96575.42
2023-03-31T03:55:04.160Z,96573.12
2023-03-31T03:57:32.166Z,96565.80
2023-03-31T04:00:00.044Z,96570.16
2023-03-31T04:02:28.984Z,96569.52
2023-03-31T04:04:57.138Z,96560.98
2023-03-31T04:07:25.269Z,96557.61
2023-03-31T04:09:53.133Z,96562.25
2023-03-31T04:12:21.319Z,96556.05
2023-03-31T04:14:49.297Z,96549.39
2023-03-31T04:17:17.300Z,96545.56
2023-03-31T04:19:45.131Z,96537.52
2023-03-31T04:22:15.568Z,96530.55
2023-03-31T04:24:46.110Z,96531.22
2023-03-31T04:27:17.547Z,96525.05
2023-03-31T04:29:47.779Z,96520.45
2023-03-31T04:32:21.801Z,96517.66
2023-03-31T04:34:50.869Z,96517.13
2023-03-31T04:37:18.956Z,96513.75
2023-03-31T04:39:50.766Z,96514.15
2023-03-31T04:42:18.801Z,96513.66
2023-03-31T04:44:46.871Z,96514.02
2023-03-31T04:47:14.846Z,96509.90
2023-03-31T04:49:43.030Z,96507.05
2023-03-31T04:52:11.111Z,96508.83
2023-03-31T04:54:39.289Z,96511.04
2023-03-31T04:57:07.467Z,96507.51
2023-03-31T04:59:35.648Z,96503.58
2023-03-31T05:02:03.849Z,96508.30
2023-03-31T05:04:32.196Z,96508.56
2023-03-31T05:07:00.382Z,96499.01
2023-03-31T05:09:28.358Z,96504.39
2023-03-31T05:11:57.113Z,96502.72
2023-03-31T05:14:25.051Z,96503.14
2023-03-31T05:16:53.101Z,96504.84
2023-03-31T05:19:21.095Z,96502.81
2023-03-31T05:21:49.180Z,96502.77
2023-03-31T05:24:17.125Z,96504.59
2023-03-31T05:26:52.899Z,96505.30
2023-03-31T05:29:21.365Z,96502.59
2023-03-31T05:31:49.862Z,96500.89
2023-03-31T05:34:18.036Z,96504.00
2023-03-31T05:36:48.146Z,96507.55
2023-03-31T05:39:16.375Z,96506.02
2023-03-31T05:41:44.311Z,96507.44
2023-03-31T05:44:12.494Z,96508.27
2023-03-31T05:46:41.430Z,96510.66
2023-03-31T05:49:11.620Z,96510.46
2023-03-31T05:51:39.588Z,96511.73
2023-03-31T05:54:07.764Z,96508.65
2023-03-31T05:56:35.838Z,96506.02
2023-03-31T05:59:05.331Z,96510.39
2023-03-31T06:01:33.638Z,96514.88
2023-03-31T06:04:02.103Z,96515.20
2023-03-31T06:06:30.083Z,96510.84
2023-03-31T06:08:58.166Z,96517.13
2023-03-31T06:11:26.653Z,96518.67
2023-03-31T06:13:54.728Z,96513.99
2023-03-31T06:16:22.843Z,96509.67
2023-03-31T06:18:53.479Z,96511.54
2023-03-31T06:21:21.932Z,96513.42
2023-03-31T06:23:49.854Z,96506.50
2023-03-31T06:26:18.899Z,96503.56
2023-03-31T06:28:47.024Z,96501.20
2023-03-31T06:31:17.364Z,96504.23
2023-03-31T06:33:45.504Z,96514.71
2023-03-31T06:36:15.744Z,96508.66
2023-03-31T06:38:44.033Z,96508.19
2023-03-31T06:41:13.330Z,96510.13
2023-03-31T06:43:41.878Z,96515.81
2023-03-31T06:46:10.608Z,96514.59
2023-03-31T06:48:38.957Z,96515.83
2023-03-31T06:51:07.756Z,96514.06
2023-03-31T06:53:36.757Z,96515.33
2023-03-31T06:56:06.501Z,96523.34
2023-03-31T06:58:35.078Z,96521.63
2023-03-31T07:03:32.567Z,96513.70
2023-03-31T07:06:01.210Z,96509.05
2023-03-31T07:08:29.029Z,96508.05
2023-03-31T07:10:58.957Z,96507.02
2023-03-31T07:13:27.287Z,96509.02
2023-03-31T07:15:56.575Z,96507.80
2023-03-31T07:18:34.429Z,96505.51
2023-03-31T07:21:05.667Z,96505.49
2023-03-31T07:23:36.172Z,96504.83
2023-03-31T07:26:04.185Z,96504.59
2023-03-31T07:28:32.503Z,96507.45
2023-03-31T07:31:00.489Z,96508.90
2023-03-31T07:33:28.395Z,96507.84
2023-03-31T07:36:08.237Z,96514.27
2023-03-31T07:38:40.181Z,96510.48
2023-03-31T07:41:12.346Z,96514.88
2023-03-31T07:43:40.630Z,96520.91
2023-03-31T07:46:14.666Z,96516.61
2023-03-31T07:48:44.168Z,96514.69
2023-03-31T07:51:12.633Z,96508.72
2023-03-31T07:53:40.713Z,96505.95
2023-03-31T07:56:09.095Z,96511.44
2023-03-31T07:58:37.067Z,96506.06
2023-03-31T08:01:05.429Z,96508.95
2023-03-31T08:03:34.882Z,96503.45
2023-03-31T08:06:02.938Z,96500.76
2023-03-31T08:08:31.114Z,96504.68
2023-03-31T08:10:58.995Z,96499.61
2023-03-31T08:13:27.270Z,96501.46
2023-03-31T08:15:55.312Z,96502.27
2023-03-31T08:18:23.225Z,96498.20
2023-03-31T08:20:51.032Z,96495.35
2023-03-31T08:23:18.903Z,96496.33
2023-03-31T08:25:47.545Z,96501.02
2023-03-31T08:28:15.452Z,96500.40
2023-03-31T08:30:43.535Z,96504.03
2023-03-31T08:33:12.598Z,96502.15
2023-03-31T08:35:40.902Z,96500.59
2023-03-31T08:38:08.848Z,96497.20
2023-03-31T08:40:40.923Z,96499.48
2023-03-31T08:43:13.197Z,96500.90
2023-03-31T08:45:43.956Z,96497.79
2023-03-31T08:48:29.349Z,96504.31
2023-03-31T08:51:04.440Z,96494.65
2023-03-31T08:53:49.913Z,96492.35
2023-03-31T08:56:19.708Z,96490.96
2023-03-31T08:58:49.058Z,96488.23
2023-03-31T09:01:47.874Z,96485.15
2023-03-31T09:04:42.183Z,96483.04
2023-03-31T09:07:22.543Z,96483.40
2023-03-31T09:09:50.614Z,96480.16
2023-03-31T09:12:38.913Z,96472.65
2023-03-31T09:15:27.510Z,96474.55
2023-03-31T09:17:58.788Z,96473.36
2023-03-31T09:20:38.599Z,96472.15
2023-03-31T09:23:12.834Z,96466.41
2023-03-31T09:25:41.811Z,96470.37
2023-03-31T09:28:16.248Z,96468.64
2023-03-31T09:30:44.612Z,96475.91
2023-03-31T09:33:20.267Z,96470.80
2023-03-31T09:35:49.853Z,96465.71
2023-03-31T09:38:19.437Z,96455.34
2023-03-31T09:40:48.094Z,96450.21
2023-03-31T09:43:24.142Z,96445.38
2023-03-31T09:46:08.756Z,96438.95
2023-03-31T09:48:39.191Z,96441.45
2023-03-31T09:51:08.329Z,96438.11
2023-03-31T09:53:59.525Z,96436.54
2023-03-31T09:56:35.186Z,96430.44
2023-03-31T09:59:04.054Z,96428.83
2023-03-31T10:01:32.694Z,96419.45
2023-03-31T10:04:02.966Z,96412.49
2023-03-31T10:06:31.677Z,96409.48
2023-03-31T10:09:05.648Z,96409.79
2023-03-31T10:11:34.082Z,96410.14
2023-03-31T10:14:04.041Z,96405.39
2023-03-31T10:16:33.252Z,96399.78
2023-03-31T10:19:27.262Z,96389.55
2023-03-31T10:21:59.852Z,96391.52
2023-03-31T10:24:41.221Z,96393.96
2023-03-31T10:27:24.649Z,96391.91
2023-03-31T10:29:56.727Z,96387.31
2023-03-31T10:32:24.646Z,96385.88
2023-03-31T10:34:53.066Z,96384.33
2023-03-31T10:37:22.929Z,96383.80
2023-03-31T10:40:01.817Z,96383.06
2023-03-31T10:42:30.114Z,96380.17
2023-03-31T10:45:26.340Z,96376.98
2023-03-31T10:47:59.745Z,96374.50
2023-03-31T10:50:29.580Z,96369.46
2023-03-31T10:53:11.423Z,96365.66
2023-03-31T10:55:42.068Z,96362.93
2023-03-31T10:58:13.192Z,96360.84
2023-03-31T11:00:56.409Z,96361.73
2023-03-31T11:03:43.199Z,96360.64
2023-03-31T11:06:22.559Z,96364.81
2023-03-31T11:09:04.856Z,96352.81
2023-03-31T11:11:38.763Z,96354.34
2023-03-31T11:14:25.361Z,96352.81
2023-03-31T11:16:56.523Z,96342.41
2023-03-31T11:19:39.125Z,96342.15
2023-03-31T11:22:10.271Z,96347.63
2023-03-31T11:24:56.646Z,96345.55
2023-03-31T11:27:33.835Z,96343.73
2023-03-31T11:30:14.090Z,96341.16
2023-03-31T11:32:58.153Z,96334.29
2023-03-31T11:35:29.229Z,96334.98
2023-03-31T11:38:08.101Z,96333.14
2023-03-31T11:40:39.249Z,96327.30
2023-03-31T11:43:10.405Z,96328.31
2023-03-31T11:45:41.468Z,96325.52
2023-03-31T11:48:22.717Z,96320.15
2023-03-31T11:50:51.408Z,96311.86
2023-03-31T11:53:23.992Z,96308.21
2023-03-31T11:55:54.008Z,96318.05
2023-03-31T11:58:32.317Z,96315.58
2023-03-31T12:01:05.508Z,96310.42
2023-03-31T12:03:41.772Z,96305.49
2023-03-31T12:06:17.481Z,96292.02
2023-03-31T12:09:01.980Z,96294.00
2023-03-31T12:11:36.100Z,96293.62
2023-03-31T12:14:22.793Z,96295.98
2023-03-31T12:16:56.197Z,96300.80
2023-03-31T12:19:24.060Z,96299.18
2023-03-31T12:21:55.617Z,96290.84
2023-03-31T12:24:23.609Z,96288.67
2023-03-31T12:27:23.801Z,96285.63
2023-03-31T12:29:54.547Z,96287.07
2023-03-31T12:32:24.189Z,96282.55
2023-03-31T12:34:57.141Z,96281.54
2023-03-31T12:37:34.430Z,96274.44
2023-03-31T12:40:12.960Z,96274.25
2023-03-31T12:42:47.255Z,96269.58
2023-03-31T12:45:31.614Z,96271.31
2023-03-31T12:48:11.579Z,96272.20
2023-03-31T12:50:50.281Z,96274.85
2023-03-31T12:53:27.351Z,96265.48
2023-03-31T12:55:58.048Z,96259.83
2023-03-31T12:58:35.177Z,96257.99
2023-03-31T13:01:15.155Z,96251.42
2023-03-31T13:03:43.321Z,96247.13
2023-03-31T13:06:12.506Z,96245.08
2023-03-31T13:08:51.640Z,96240.37
2023-03-31T13:11:22.072Z,96234.04
2023-03-31T13:14:09.177Z,96231.95
2023-03-31T13:16:37.283Z,96236.65
2023-03-31T13:19:06.144Z,96228.52
2023-03-31T13:21:52.358Z,96226.63
2023-03-31T13:24:24.389Z,96231.77
2023-03-31T13:26:54.858Z,96227.77
2023-03-31T13:29:25.180Z,96222.00
2023-03-31T13:32:02.513Z,96219.79
2023-03-31T13:34:36.454Z,96217.48
2023-03-31T13:37:04.409Z,96220.27
2023-03-31T13:39:47.441Z,96218.54
2023-03-31T13:42:24.533Z,96222.08
2023-03-31T13:45:03.420Z,96223.27
2023-03-31T13:47:40.990Z,96218.28
2023-03-31T13:50:27.925Z,96215.20
2023-03-31T13:52:59.105Z,96216.81
2023-03-31T13:55:47.081Z,96215.45
2023-03-31T13:58:32.822Z,96206.75
2023-03-31T14:01:15.215Z,96205.67
2023-03-31T14:04:01.494Z,96203.61
2023-03-31T14:06:29.679Z,96203.02
2023-03-31T14:09:00.935Z,96201.08
2023-03-31T14:11:30.474Z,96200.00
2023-03-31T14:14:12.545Z,96192.07
2023-03-31T14:16:41.851Z,96191.19
2023-03-31T14:22:08.077Z,96189.20
2023-03-31T14:24:39.637Z,96188.24
2023-03-31T14:27:26.730Z,96187.23
2023-03-31T14:29:54.620Z,96182.34
2023-03-31T14:32:24.150Z,96185.64
2023-03-31T14:35:10.973Z,96184.96
2023-03-31T14:37:39.937Z,96189.84
2023-03-31T14:40:14.656Z,96196.93
2023-03-31T14:42:49.646Z,96197.89
2023-03-31T14:45:25.127Z,96197.50
2023-03-31T14:47:54.101Z,96198.46
2023-03-31T14:50:22.324Z,96203.16
2023-03-31T14:52:52.505Z,96202.63
2023-03-31T14:55:25.187Z,96198.83
2023-03-31T14:57:58.726Z,96200.33
2023-03-31T15:00:29.818Z,96208.09
2023-03-31T15:02:58.811Z,96206.33
2023-03-31T15:05:34.688Z,96206.77
2023-03-31T15:08:04.080Z,96204.77
2023-03-31T15:10:35.505Z,96207.62
2023-03-31T15:13:11.743Z,96211.70
2023-03-31T15:15:39.724Z,96219.20
2023-03-31T15:18:11.491Z,96217.30
2023-03-31T15:20:40.936Z,96220.75
2023-03-31T15:23:26.057Z,96222.02
2023-03-31T15:25:58.234Z,96221.63
2023-03-31T15:28:28.447Z,96219.22
2023-03-31T15:31:07.288Z,96212.17
2023-03-31T15:33:41.769Z,96206.42
2023-03-31T15:36:13.895Z,96206.86
2023-03-31T15:38:42.451Z,96203.27
2023-03-31T15:41:14.620Z,96198.70
2023-03-31T15:43:43.317Z,96195.42
2023-03-31T15:46:12.221Z,96191.02
2023-03-31T15:48:58.178Z,96185.76
2023-03-31T15:51:30.895Z,96181.82
2023-03-31T15:53:58.844Z,96174.09
2023-03-31T15:56:38.284Z,96171.68
2023-03-31T15:59:06.994Z,96174.58
2023-03-31T16:01:38.811Z,96179.33
2023-03-31T16:04:08.569Z,96181.08
2023-03-31T16:06:47.574Z,96183.84
2023-03-31T16:09:19.444Z,96186.99
2023-03-31T16:11:50.150Z,96192.12
2023-03-31T16:14:21.636Z,96196.01
2023-03-31T16:16:52.968Z,96197.66
2023-03-31T16:19:22.074Z,96200.96
2023-03-31T16:21:53.013Z,96198.74
2023-03-31T16:24:21.805Z,96198.13
2023-03-31T16:26:49.713Z,96197.38
2023-03-31T16:29:21.356Z,96196.20
2023-03-31T16:31:49.427Z,96195.73
2023-03-31T16:34:17.602Z,96196.52
2023-03-31T16:36:45.793Z,96198.20
2023-03-31T16:39:13.854Z,96198.50
2023-03-31T16:41:41.740Z,96196.61
2023-03-31T16:44:09.800Z,96197.65
2023-03-31T16:46:37.778Z,96190.59
2023-03-31T16:49:06.173Z,96188.56
2023-03-31T16:51:34.243Z,96186.48
2023-03-31T16:54:02.314Z,96185.54
2023-03-31T16:56:30.700Z,96191.23
2023-03-31T16:58:58.992Z,96188.70
2023-03-31T17:01:27.278Z,96189.42
2023-03-31T17:03:56.092Z,96192.60
2023-03-31T17:06:24.130Z,96195.70
2023-03-31T17:08:52.004Z,96199.10
2023-03-31T17:11:19.971Z,96194.77
2023-03-31T17:13:48.866Z,96189.61
2023-03-31T17:16:24.434Z,96186.69
2023-03-31T17:19:00.783Z,96183.45
2023-03-31T17:21:30.893Z,96187.72
2023-03-31T17:24:01.611Z,96181.78
2023-03-31T17:26:30.949Z,96174.77
2023-03-31T17:29:00.763Z,96174.21
2023-03-31T17:31:28.691Z,96173.07
2023-03-31T17:33:57.023Z,96173.30
2023-03-31T17:36:24.999Z,96175.09
2023-03-31T17:38:52.964Z,96180.64
2023-03-31T17:41:21.331Z,96175.76
2023-03-31T17:43:50.291Z,96174.12
2023-03-31T17:46:19.011Z,96165.73
2023-03-31T17:48:47.215Z,96162.43
2023-03-31T17:51:16.952Z,96161.86
2023-03-31T17:53:46.340Z,96167.45
2023-03-31T17:56:15.644Z,96167.32
2023-03-31T17:58:43.835Z,96167.54
2023-03-31T18:01:12.884Z,96165.64
2023-03-31T18:03:41.318Z,96162.27
2023-03-31T18:06:11.845Z,96162.48
2023-03-31T18:08:40.454Z,96165.67
2023-03-31T18:11:09.431Z,96163.40
2023-03-31T18:13:37.821Z,96157.73
2023-03-31T18:16:08.773Z,96154.84
2023-03-31T18:18:37.032Z,96157.23
2023-03-31T18:21:06.753Z,96156.53
2023-03-31T18:23:35.130Z,96158.40
2023-03-31T18:26:06.268Z,96155.58
2023-03-31T18:28:34.090Z,96156.22
2023-03-31T18:31:05.760Z,96163.33
2023-03-31T18:33:34.519Z,96163.37
2023-03-31T18:36:03.594Z,96162.32
2023-03-31T18:38:32.713Z,96164.45
2023-03-31T18:41:00.784Z,96159.78
2023-03-31T18:43:30.221Z,96160.58
2023-03-31T18:46:01.588Z,96157.25
2023-03-31T18:48:29.810Z,96152.47
2023-03-31T18:50:58.522Z,96154.48
2023-03-31T18:53:26.898Z,96158.69
2023-03-31T18:55:57.001Z,96154.00
2023-03-31T18:58:25.953Z,96148.55
2023-03-31T19:00:56.623Z,96143.20
2023-03-31T19:03:26.758Z,96137.79
2023-03-31T19:06:04.781Z,96133.14
2023-03-31T19:08:32.749Z,96129.97
2023-03-31T19:11:09.627Z,96128.61
2023-03-31T19:13:38.510Z,96127.21
2023-03-31T19:16:07.106Z,96124.31
2023-03-31T19:18:35.071Z,96121.20
2023-03-31T19:21:03.346Z,96120.10
2023-03-31T19:23:31.869Z,96114.31
2023-03-31T19:25:59.772Z,96111.45
2023-03-31T19:28:27.962Z,96113.54
2023-03-31T19:30:56.897Z,96113.15
2023-03-31T19:33:27.146Z,96113.34
2023-03-31T19:35:55.607Z,96113.23
2023-03-31T19:38:25.727Z,96106.63
2023-03-31T19:40:53.577Z,96104.38
2023-03-31T19:43:23.172Z,96099.92
2023-03-31T19:45:53.495Z,96099.34
2023-03-31T19:48:22.641Z,96101.04
2023-03-31T19:50:51.942Z,96094.59
2023-03-31T19:53:21.036Z,96093.55
2023-03-31T19:55:57.208Z,96089.36
2023-03-31T19:58:25.480Z,96090.15
2023-03-31T20:00:54.797Z,96087.85
2023-03-31T20:03:23.788Z,96079.45
2023-03-31T20:05:53.910Z,96071.07
2023-03-31T20:08:21.980Z,96068.61
2023-03-31T20:10:49.915Z,96067.40
2023-03-31T20:13:18.653Z,96066.30
2023-03-31T20:15:46.879Z,96063.05
2023-03-31T20:18:14.855Z,96063.21
2023-03-31T20:20:43.174Z,96056.83
2023-03-31T20:23:11.169Z,96049.89
2023-03-31T20:25:39.150Z,96048.95
2023-03-31T20:28:07.112Z,96049.24
2023-03-31T20:30:38.046Z,96048.67
2023-03-31T20:33:06.062Z,96048.77
2023-03-31T20:35:34.258Z,96047.14
2023-03-31T20:38:02.179Z,96043.92
2023-03-31T20:40:30.255Z,96036.67
2023-03-31T20:42:58.136Z,96037.58
2023-03-31T20:45:26.403Z,96037.85
2023-03-31T20:47:54.499Z,96040.66
2023-03-31T20:50:23.180Z,96040.69
2023-03-31T20:52:51.143Z,96033.91
2023-03-31T20:55:19.015Z,96022.05
2023-03-31T20:57:46.910Z,96012.04
2023-03-31T21:00:15.591Z,96007.89
2023-03-31T21:02:43.743Z,96004.73
2023-03-31T21:05:11.951Z,96004.11
2023-03-31T21:07:39.817Z,96004.55
2023-03-31T21:10:07.913Z,96001.19
2023-03-31T21:12:36.372Z,96004.75
2023-03-31T21:15:04.546Z,95996.37
2023-03-31T21:17:32.421Z,95994.88
2023-03-31T21:20:00.725Z,95993.19
2023-03-31T21:22:28.691Z,95988.25
2023-03-31T21:24:56.868Z,95983.73
2023-03-31T21:27:24.737Z,95981.63
2023-03-31T21:29:52.723Z,95980.74
2023-03-31T21:32:20.646Z,95981.71
2023-03-31T21:34:48.768Z,95973.70
2023-03-31T21:37:16.937Z,95966.81
2023-03-31T21:39:44.910Z,95958.92
2023-03-31T21:42:14.125Z,95955.56
2023-03-31T21:44:42.487Z,95953.36
2023-03-31T21:47:10.984Z,95954.20
2023-03-31T21:49:39.477Z,95948.83
2023-03-31T21:52:07.341Z,95941.19
2023-03-31T21:54:35.228Z,95936.73
2023-03-31T21:57:03.119Z,95942.85
2023-03-31T21:59:31.269Z,95943.14
2023-03-31T22:01:59.303Z,95946.66
2023-03-31T22:04:27.266Z,95944.45
2023-03-31T22:06:55.484Z,95941.73
2023-03-31T22:09:24.080Z,95939.05
2023-03-31T22:11:52.768Z,95939.28
2023-03-31T22:14:21.772Z,95938.39
2023-03-31T22:16:49.742Z,95943.88
2023-03-31T22:19:17.722Z,95945.10
2023-03-31T22:21:47.429Z,95941.17
2023-03-31T22:24:15.683Z,95945.42
2023-03-31T22:26:43.590Z,95942.40
2023-03-31T22:29:15.739Z,95945.09
2023-03-31T22:31:43.601Z,95948.68
2023-03-31T22:34:12.120Z,95949.02
2023-03-31T22:36:40.183Z,95948.48
2023-03-31T22:39:08.241Z,95947.67
2023-03-31T22:41:36.737Z,95945.88
2023-03-31T22:44:04.831Z,95945.85
2023-03-31T22:46:33.059Z,95938.70
2023-03-31T22:49:00.987Z,95933.14
2023-03-31T22:51:28.993Z,95928.63
2023-03-31T22:53:57.280Z,95921.36
2023-03-31T22:56:27.042Z,95930.39
2023-03-31T22:58:57.073Z,95927.64
2023-03-31T23:01:25.612Z,95918.39
2023-03-31T23:03:53.693Z,95918.80
2023-03-31T23:06:22.011Z,95916.26
2023-03-31T23:08:50.100Z,95916.23
2023-03-31T23:11:18.888Z,95916.20
2023-03-31T23:13:47.078Z,95917.53
2023-03-31T23:16:22.581Z,95914.91
2023-03-31T23:18:52.742Z,95913.60
2023-03-31T23:21:22.750Z,95912.31
2023-03-31T23:23:53.749Z,95908.65
2023-03-31T23:26:22.589Z,95905.05
2023-03-31T23:28:51.088Z,95899.00
2023-03-31T23:31:20.709Z,95896.79
2023-03-31T23:33:48.896Z,95894.30
2023-03-31T23:36:18.224Z,95885.92
2023-03-31T23:38:47.021Z,95879.05
2023-03-31T23:41:15.030Z,95880.46
2023-03-31T23:43:43.523Z,95868.58
2023-03-31T23:46:13.110Z,95862.56
2023-03-31T23:48:41.273Z,95850.71
2023-03-31T23:51:09.498Z,95854.85
2023-03-31T23:53:37.369Z,95868.81
2023-03-31T23:56:07.686Z,95866.79
2023-03-31T23:58:35.875Z,95862.86
